Time;durP1;ratioP1;P1;durP2;ratioP2;P2;SDS_P1;SDS_P2;PMS_P1;PMS_P2;Temp;Humidity;BMP_temperature;BMP_pressure;BME280_temperature;BME280_humidity;BME280_pressure;Samples;Min_cycle;Max_cycle;Signal;HPM_P1;HPM_P2
2022/02/12 00:00:10;;;;;;;9.87;2.17;;;;;;;0.54;90.86;102499.69;5017340;28;20199;-77
2022/02/12 00:02:36;;;;;;;6.07;2.20;;;;;;;0.53;90.62;102509.88;5019123;28;20199;-77
2022/02/12 00:05:03;;;;;;;4.30;2.20;;;;;;;0.50;90.54;102514.84;5019453;28;20226;-77
2022/02/12 00:07:29;;;;;;;5.63;2.10;;;;;;;0.44;90.66;102515.41;5018558;28;20679;-77
2022/02/12 00:09:56;;;;;;;4.10;1.87;;;;;;;0.43;90.31;102510.16;5016489;28;20635;-77
2022/02/12 00:12:23;;;;;;;6.23;2.77;;;;;;;0.37;90.51;102516.72;5016954;28;20695;-77
2022/02/12 00:14:50;;;;;;;4.63;2.57;;;;;;;0.39;90.76;102512.53;5015473;28;20252;-77
2022/02/12 00:17:16;;;;;;;6.77;1.97;;;;;;;0.43;91.00;102505.03;5016023;28;20731;-77
2022/02/12 00:19:43;;;;;;;4.83;1.67;;;;;;;0.37;90.67;102511.56;5016577;28;20199;-77
2022/02/12 00:22:09;;;;;;;5.90;2.13;;;;;;;0.42;90.94;102516.09;5015903;28;20203;-77
2022/02/12 00:24:36;;;;;;;6.97;1.80;;;;;;;0.39;90.04;102517.69;5024853;23;20868;-75
2022/02/12 00:27:02;;;;;;;14.13;2.30;;;;;;;0.41;89.71;102520.34;5013515;28;20687;-73
2022/02/12 00:29:30;;;;;;;5.10;2.03;;;;;;;0.37;90.32;102519.28;5013817;28;20264;-73
2022/02/12 00:31:56;;;;;;;6.30;2.10;;;;;;;0.45;90.19;102529.13;5014278;28;20614;-74
2022/02/12 00:34:23;;;;;;;9.50;2.17;;;;;;;0.47;90.05;102523.25;5014160;28;20285;-74
2022/02/12 00:36:49;;;;;;;6.10;2.43;;;;;;;0.44;89.66;102529.91;5014108;28;20634;-74
2022/02/12 00:39:16;;;;;;;9.87;1.97;;;;;;;0.31;89.57;102539.50;5013719;28;20742;-74
2022/02/12 00:41:42;;;;;;;6.67;2.27;;;;;;;0.39;90.54;102527.09;5013882;28;20213;-75
2022/02/12 00:44:09;;;;;;;4.03;1.70;;;;;;;0.43;90.12;102529.03;5013817;28;20226;-75
2022/02/12 00:46:37;;;;;;;5.77;2.20;;;;;;;0.41;89.59;102532.31;5013885;28;20214;-74
2022/02/12 00:49:04;;;;;;;9.30;2.57;;;;;;;0.46;89.19;102536.91;5013690;28;20213;-74
2022/02/12 00:51:31;;;;;;;4.57;2.07;;;;;;;0.51;89.18;102537.16;5013657;28;20210;-73
2022/02/12 00:53:57;;;;;;;8.67;2.40;;;;;;;0.48;88.96;102545.59;5021539;28;20229;-74
2022/02/12 00:56:24;;;;;;;12.57;2.67;;;;;;;0.48;89.31;102550.72;5025194;28;20310;-74
2022/02/12 00:58:51;;;;;;;6.70;2.40;;;;;;;0.44;89.62;102546.22;5033497;28;20268;-74
2022/02/12 01:01:18;;;;;;;7.83;2.30;;;;;;;0.45;89.18;102537.69;5032570;28;20213;-75
2022/02/12 01:03:46;;;;;;;3.73;2.07;;;;;;;0.48;89.38;102545.59;5033066;28;20226;-74
2022/02/12 01:06:12;;;;;;;13.50;2.50;;;;;;;0.48;89.22;102539.56;5032958;28;20667;-74
2022/02/12 01:08:39;;;;;;;6.23;1.90;;;;;;;0.50;89.47;102541.44;5032826;28;20882;-74
2022/02/12 01:11:05;;;;;;;8.27;2.70;;;;;;;0.45;88.71;102542.84;5032402;28;20214;-74
2022/02/12 01:13:32;;;;;;;4.30;2.10;;;;;;;0.49;88.95;102538.75;5032375;28;20460;-74
2022/02/12 01:15:58;;;;;;;5.70;2.83;;;;;;;0.43;88.98;102546.13;5032866;28;20252;-74
2022/02/12 01:18:24;;;;;;;5.63;2.33;;;;;;;0.37;88.87;102550.09;5032576;28;20742;-74
2022/02/12 01:20:52;;;;;;;5.70;2.20;;;;;;;0.40;88.67;102552.00;5032134;28;20210;-73
2022/02/12 01:23:19;;;;;;;2.93;1.70;;;;;;;0.46;88.41;102549.75;5031355;28;20227;-74
2022/02/12 01:25:48;;;;;;;4.07;1.90;;;;;;;0.41;88.82;102555.44;5024063;28;20201;-74
2022/02/12 01:28:15;;;;;;;7.73;1.90;;;;;;;0.43;88.56;102544.44;5032646;28;20214;-74
2022/02/12 01:30:42;;;;;;;9.37;2.10;;;;;;;0.30;89.24;102550.56;5032045;28;20726;-73
2022/02/12 01:33:08;;;;;;;8.07;2.30;;;;;;;0.35;89.50;102531.16;5032521;28;20234;-74
2022/02/12 01:35:34;;;;;;;6.73;2.10;;;;;;;0.40;89.73;102539.16;5032829;28;20206;-74
2022/02/12 01:38:02;;;;;;;6.40;2.33;;;;;;;0.41;89.01;102535.75;5032693;28;20206;-74
2022/02/12 01:40:29;;;;;;;3.53;1.87;;;;;;;0.41;88.91;102535.75;5032453;28;20202;-74
2022/02/12 01:42:55;;;;;;;5.00;1.80;;;;;;;0.38;89.21;102539.06;5032665;28;20206;-74
2022/02/12 01:45:22;;;;;;;8.57;2.00;;;;;;;0.43;89.12;102535.84;5032421;28;20206;-74
2022/02/12 01:47:49;;;;;;;7.63;2.10;;;;;;;0.48;88.55;102531.88;5032598;28;20297;-74
2022/02/12 01:50:16;;;;;;;4.77;1.70;;;;;;;0.48;88.23;102537.88;5032265;28;20209;-73
2022/02/12 01:52:44;;;;;;;2.83;1.30;;;;;;;0.45;88.67;102549.66;5032358;28;20230;-74
2022/02/12 01:55:12;;;;;;;5.33;1.63;;;;;;;0.49;88.35;102549.03;5023481;28;20298;-74
2022/02/12 01:57:39;;;;;;;3.10;1.90;;;;;;;0.48;87.87;102558.44;5032552;28;20350;-74
2022/02/12 02:00:08;;;;;;;7.57;1.77;;;;;;;0.45;87.81;102549.66;5032415;28;20256;-74
2022/02/12 02:02:37;;;;;;;2.40;1.63;;;;;;;0.46;88.58;102542.06;5032110;28;20564;-74
2022/02/12 02:05:04;;;;;;;5.23;1.73;;;;;;;0.42;88.47;102555.53;5032469;28;20226;-73
2022/02/12 02:07:31;;;;;;;6.40;1.73;;;;;;;0.39;88.44;102548.50;5032253;28;20261;-74
2022/02/12 02:09:57;;;;;;;5.00;1.53;;;;;;;0.38;87.84;102553.59;5031816;28;20252;-74
2022/02/12 02:12:25;;;;;;;6.57;1.87;;;;;;;0.35;87.68;102546.56;5032402;28;20205;-74
2022/02/12 02:14:51;;;;;;;5.97;1.73;;;;;;;0.36;88.65;102548.34;5031757;28;20284;-73
2022/02/12 02:17:18;;;;;;;8.87;2.07;;;;;;;0.34;87.94;102541.38;5032290;28;20205;-74
2022/02/12 02:19:44;;;;;;;3.00;1.40;;;;;;;0.33;87.97;102550.72;5031554;28;20613;-74
2022/02/12 02:22:12;;;;;;;5.70;1.77;;;;;;;0.28;87.95;102562.44;5031979;28;20833;-74
2022/02/12 02:24:39;;;;;;;8.43;1.57;;;;;;;0.35;87.50;102559.41;5025739;28;20653;-74
2022/02/12 02:27:08;;;;;;;3.07;1.33;;;;;;;0.29;87.75;102555.63;5029764;28;20268;-74
2022/02/12 02:29:37;;;;;;;5.53;1.53;;;;;;;0.24;87.89;102552.78;5031500;28;20210;-74
2022/02/12 02:32:04;;;;;;;6.60;1.40;;;;;;;0.24;87.84;102549.31;5031663;28;20737;-74
2022/02/12 02:34:30;;;;;;;5.27;1.43;;;;;;;0.24;87.64;102545.09;5035509;28;20230;-74
2022/02/12 02:36:57;;;;;;;5.87;1.57;;;;;;;0.18;87.94;102547.31;5036114;28;20210;-74
2022/02/12 02:39:23;;;;;;;3.83;1.93;;;;;;;0.16;87.40;102543.78;5035582;28;20263;-74
2022/02/12 02:41:51;;;;;;;7.80;2.10;;;;;;;0.14;87.26;102541.09;5035452;28;20206;-74
2022/02/12 02:44:17;;;;;;;2.50;1.33;;;;;;;0.10;87.41;102548.53;5035640;28;20226;-74
2022/02/12 02:46:44;;;;;;;4.23;1.40;;;;;;;0.06;88.08;102544.00;5035710;28;20256;-74
2022/02/12 02:49:10;;;;;;;5.67;1.37;;;;;;;0.03;88.09;102541.28;5035787;28;20280;-74
2022/02/12 02:57:06;;;;;;;8.23;2.13;;;;;;;0.05;87.97;102534.56;5032436;28;20312;-74
2022/02/12 02:59:33;;;;;;;6.57;1.20;;;;;;;0.04;88.46;102532.78;5035108;28;20214;-74
2022/02/12 03:01:59;;;;;;;3.70;1.33;;;;;;;0.08;88.37;102519.31;5035388;28;20206;-74
2022/02/12 03:04:25;;;;;;;6.37;1.60;;;;;;;0.07;88.38;102525.25;5035170;28;20222;-75
2022/02/12 03:06:53;;;;;;;4.40;1.60;;;;;;;0.06;88.00;102529.50;5034944;28;20216;-74
2022/02/12 03:09:19;;;;;;;5.03;1.40;;;;;;;0.06;88.04;102521.81;5035115;28;20255;-74
2022/02/12 03:11:46;;;;;;;4.20;1.40;;;;;;;0.07;88.41;102527.81;5035168;28;20220;-74
2022/02/12 03:14:14;;;;;;;3.53;1.17;;;;;;;0.08;87.95;102534.72;5034483;28;20234;-74
2022/02/12 03:16:41;;;;;;;8.60;1.90;;;;;;;-0.01;87.99;102540.22;5034907;28;20214;-74
2022/02/12 03:19:07;;;;;;;5.17;1.40;;;;;;;-0.02;88.59;102526.50;5034691;28;20210;-74
2022/02/12 03:21:34;;;;;;;5.57;1.67;;;;;;;0.02;88.00;102534.38;5034644;28;20203;-74
2022/02/12 03:24:00;;;;;;;6.80;1.43;;;;;;;0.03;88.59;102524.19;5033010;28;20234;-74
2022/02/12 03:26:27;;;;;;;3.03;1.07;;;;;;;0.01;88.53;102527.47;5026678;28;20730;-74
2022/02/12 03:28:53;;;;;;;3.37;1.00;;;;;;;0.00;88.09;102524.03;5034761;28;20212;-74
2022/02/12 03:31:21;;;;;;;5.23;1.33;;;;;;;-0.02;87.58;102531.63;5033989;28;20729;-74
2022/02/12 03:33:47;;;;;;;4.77;1.50;;;;;;;-0.01;87.79;102535.97;5034354;28;20582;-74
2022/02/12 03:36:14;;;;;;;4.23;1.00;;;;;;;-0.03;87.22;102529.84;5034640;28;20255;-74
2022/02/12 03:38:46;;;;;;;3.87;1.47;;;;;;;-0.02;87.95;102529.06;5034657;28;20210;-75
2022/02/12 03:41:12;;;;;;;3.00;1.00;;;;;;;0.02;87.86;102526.66;5034056;28;20308;-74
2022/02/12 03:43:39;;;;;;;6.07;1.87;;;;;;;0.01;87.55;102530.03;5034512;28;20226;-74
2022/02/12 03:46:06;;;;;;;3.73;1.10;;;;;;;0.00;87.26;102521.47;5033370;28;20213;-73
2022/02/12 03:48:34;;;;;;;7.40;1.43;;;;;;;-0.05;87.60;102525.44;5034206;28;20209;-74
2022/02/12 03:51:01;;;;;;;3.10;1.30;;;;;;;-0.08;87.44;102525.25;5033836;28;20256;-74
2022/02/12 03:53:27;;;;;;;7.03;1.63;;;;;;;-0.12;87.86;102524.19;5033644;28;20230;-74
2022/02/12 03:55:54;;;;;;;4.90;1.50;;;;;;;-0.04;87.76;102516.91;5025933;28;20289;-74
2022/02/12 03:58:21;;;;;;;8.53;1.60;;;;;;;-0.05;87.52;102513.47;5034248;28;20206;-74
2022/02/12 04:00:49;;;;;;;4.57;1.67;;;;;;;-0.07;87.72;102522.78;5033909;28;20210;-74
2022/02/12 04:03:15;;;;;;;3.37;1.23;;;;;;;-0.04;87.23;102529.75;5033672;28;20226;-74
2022/02/12 04:05:44;;;;;;;2.90;1.10;;;;;;;-0.08;87.13;102535.50;5022325;28;20215;-74
2022/02/12 04:08:12;;;;;;;3.73;1.23;;;;;;;-0.12;86.74;102544.75;5032020;28;20289;-74
2022/02/12 04:10:39;;;;;;;7.00;1.53;;;;;;;-0.10;86.81;102539.66;5033514;28;20206;-74
2022/02/12 04:13:06;;;;;;;3.50;1.50;;;;;;;-0.16;86.41;102534.19;5033904;28;20233;-74
2022/02/12 04:15:32;;;;;;;8.03;2.10;;;;;;;-0.18;87.21;102535.78;5033441;28;20203;-74
2022/02/12 04:18:00;;;;;;;4.23;1.40;;;;;;;-0.19;86.70;102531.44;5033914;28;20248;-74
2022/02/12 04:20:27;;;;;;;5.50;1.90;;;;;;;-0.25;86.68;102526.84;5033491;28;20217;-74
2022/02/12 04:22:54;;;;;;;3.73;1.33;;;;;;;-0.23;87.11;102525.25;5032916;28;20210;-74
2022/02/12 04:25:23;;;;;;;4.70;2.00;;;;;;;-0.20;86.72;102515.16;5024317;28;20256;-74
2022/02/12 04:27:50;;;;;;;7.93;1.60;;;;;;;-0.24;87.53;102513.19;5033627;28;20210;-74
2022/02/12 04:30:16;;;;;;;2.93;1.27;;;;;;;-0.24;87.05;102515.75;5033149;28;20668;-74
2022/02/12 04:32:44;;;;;;;4.23;1.20;;;;;;;-0.22;87.09;102514.16;5033363;28;20265;-75
2022/02/12 04:35:12;;;;;;;6.00;1.40;;;;;;;-0.19;87.06;102511.78;5029347;28;20676;-75
2022/02/12 04:37:39;;;;;;;4.23;1.30;;;;;;;-0.16;87.14;102511.97;5025258;28;20206;-74
2022/02/12 04:40:07;;;;;;;5.30;1.57;;;;;;;-0.19;87.08;102511.78;5033215;28;20252;-74
2022/02/12 04:42:34;;;;;;;4.03;1.77;;;;;;;-0.19;87.14;102508.34;5033090;28;20214;-75
2022/02/12 04:45:01;;;;;;;3.63;1.10;;;;;;;-0.18;87.12;102502.41;5033256;28;20221;-75
2022/02/12 04:47:29;;;;;;;5.90;1.30;;;;;;;-0.22;87.30;102504.81;5033119;28;20214;-74
2022/02/12 04:49:55;;;;;;;5.37;1.87;;;;;;;-0.22;87.78;102497.13;5032736;28;20205;-75
2022/02/12 04:52:22;;;;;;;6.20;1.50;;;;;;;-0.27;87.27;102489.94;5033063;28;20210;-74
2022/02/12 04:54:49;;;;;;;6.97;1.70;;;;;;;-0.21;87.18;102492.84;5032692;28;20230;-74
2022/02/12 04:57:17;;;;;;;6.10;1.73;;;;;;;-0.27;87.69;102495.94;5032254;28;20206;-75
2022/02/12 04:59:44;;;;;;;2.67;1.50;;;;;;;-0.26;86.77;102491.69;5032253;28;20668;-74
2022/02/12 05:02:10;;;;;;;3.50;1.50;;;;;;;-0.35;86.64;102501.44;5032977;28;20202;-74
2022/02/12 05:04:37;;;;;;;5.47;1.50;;;;;;;-0.30;86.71;102511.16;5032934;28;20222;-75
2022/02/12 05:07:04;;;;;;;10.53;1.87;;;;;;;-0.32;86.53;102514.44;5021597;28;20225;-74
2022/02/12 05:09:35;;;;;;;4.47;1.57;;;;;;;-0.33;86.70;102494.72;5032289;28;20297;-74
2022/02/12 05:12:02;;;;;;;4.73;1.50;;;;;;;-0.32;86.46;102502.47;5033326;28;20280;-74
2022/02/12 05:14:31;;;;;;;3.73;0.90;;;;;;;-0.29;86.08;102501.78;5031973;28;20234;-74
2022/02/12 05:16:59;;;;;;;3.80;1.40;;;;;;;-0.34;86.21;102493.81;5032643;28;20210;-74
2022/02/12 05:19:25;;;;;;;3.80;1.40;;;;;;;-0.34;86.12;102490.38;5032185;28;20210;-74
2022/02/12 05:21:52;;;;;;;3.77;1.50;;;;;;;-0.36;86.60;102494.53;5032630;28;20248;-74
2022/02/12 05:24:18;;;;;;;5.77;1.10;;;;;;;-0.41;86.21;102497.69;5032153;28;20276;-74
2022/02/12 05:26:45;;;;;;;3.17;1.20;;;;;;;-0.36;86.76;102494.53;5032668;28;20206;-74
2022/02/12 05:29:11;;;;;;;3.20;1.30;;;;;;;-0.35;86.64;102481.78;5032542;28;20210;-74
2022/02/12 05:31:40;;;;;;;2.67;1.20;;;;;;;-0.30;86.34;102492.31;5032356;28;20209;-74
2022/02/12 05:34:07;;;;;;;5.47;2.13;;;;;;;-0.26;86.45;102494.25;5032317;28;20280;-74
2022/02/12 05:36:33;;;;;;;6.33;1.17;;;;;;;-0.29;85.79;102504.34;5024868;28;20253;-74
2022/02/12 05:38:59;;;;;;;6.00;1.03;;;;;;;-0.32;85.75;102512.75;5028831;28;20660;-74
2022/02/12 05:41:26;;;;;;;3.87;1.37;;;;;;;-0.42;85.58;102519.03;5032001;28;20715;-74
2022/02/12 05:43:52;;;;;;;5.67;1.33;;;;;;;-0.40;86.14;102506.28;5032331;28;20280;-74
2022/02/12 05:46:19;;;;;;;6.70;1.60;;;;;;;-0.36;85.58;102509.91;5032379;28;20210;-74
2022/02/12 05:48:47;;;;;;;4.30;1.40;;;;;;;-0.34;85.29;102516.03;5032252;28;20206;-74
2022/02/12 05:51:18;;;;;;;2.27;1.30;;;;;;;-0.35;84.24;102547.63;5031865;28;20214;-74
2022/02/12 05:53:44;;;;;;;3.30;1.90;;;;;;;-0.29;84.18;102541.16;5032037;28;20230;-74
2022/02/12 05:56:11;;;;;;;4.33;1.37;;;;;;;-0.28;84.02;102548.09;5032240;28;20400;-74
2022/02/12 05:58:37;;;;;;;1.30;1.10;;;;;;;-0.25;83.75;102565.34;5032045;28;20216;-74
2022/02/12 06:01:04;;;;;;;2.67;1.10;;;;;;;-0.23;83.92;102548.34;5031613;28;20242;-73
2022/02/12 06:03:30;;;;;;;4.40;1.40;;;;;;;-0.29;83.71;102555.69;5031570;28;20714;-74
2022/02/12 06:05:58;;;;;;;2.33;1.23;;;;;;;-0.27;84.12;102547.28;5029328;28;20268;-74
2022/02/12 06:08:25;;;;;;;3.97;1.70;;;;;;;-0.26;84.96;102532.75;5015771;28;20615;-74
2022/02/12 06:10:51;;;;;;;3.80;1.30;;;;;;;-0.30;84.54;102528.22;5031807;28;20256;-74
2022/02/12 06:13:18;;;;;;;2.93;1.30;;;;;;;-0.34;84.14;102529.72;5031156;28;20621;-73
2022/02/12 06:15:45;;;;;;;4.33;1.50;;;;;;;-0.36;83.41;102538.13;5031797;28;20230;-73
2022/02/12 06:18:11;;;;;;;6.27;1.97;;;;;;;-0.32;83.18;102548.66;5031942;28;20206;-73
2022/02/12 06:20:38;;;;;;;6.13;1.57;;;;;;;-0.37;83.14;102554.34;5031550;28;20293;-74
2022/02/12 06:23:05;;;;;;;4.60;1.90;;;;;;;-0.38;83.27;102544.84;5031849;28;20226;-74
2022/02/12 06:25:32;;;;;;;6.43;1.30;;;;;;;-0.35;84.10;102533.09;5004031;23;20240;-79
2022/02/12 06:27:58;;;;;;;4.87;1.27;;;;;;;-0.32;83.83;102527.25;4972131;28;20213;-80
2022/02/12 06:30:25;;;;;;;5.30;1.80;;;;;;;-0.27;83.22;102533.56;4973394;28;20237;-79
2022/02/12 06:32:52;;;;;;;5.50;1.70;;;;;;;-0.35;84.06;102530.53;4973610;28;20254;-79
2022/02/12 06:35:19;;;;;;;4.70;1.40;;;;;;;-0.39;83.96;102510.63;4973725;28;20232;-79
2022/02/12 06:37:45;;;;;;;2.27;1.53;;;;;;;-0.38;84.29;102514.06;4973625;28;20235;-79
2022/02/12 06:40:14;;;;;;;2.60;1.23;;;;;;;-0.40;83.93;102511.41;4973133;28;20623;-78
2022/02/12 06:42:40;;;;;;;6.37;1.93;;;;;;;-0.43;83.56;102508.69;4973772;28;20218;-79
2022/02/12 06:45:08;;;;;;;2.23;1.30;;;;;;;-0.42;83.54;102523.25;4974397;28;20331;-79
2022/02/12 06:47:34;;;;;;;5.43;1.57;;;;;;;-0.44;83.40;102524.84;4973889;28;20208;-80
2022/02/12 06:50:00;;;;;;;9.63;1.80;;;;;;;-0.44;83.47;102528.31;4973843;28;20216;-79
2022/02/12 06:52:27;;;;;;;2.97;1.40;;;;;;;-0.42;83.49;102523.25;4974481;28;20216;-79
2022/02/12 06:54:54;;;;;;;1.90;1.17;;;;;;;-0.41;84.02;102507.97;4957225;28;20814;-79
2022/02/12 06:57:21;;;;;;;4.10;1.40;;;;;;;-0.39;84.21;102496.94;4943328;29;20213;-79
2022/02/12 06:59:48;;;;;;;4.10;1.47;;;;;;;-0.41;84.51;102500.25;4935764;29;20284;-80
2022/02/12 07:02:14;;;;;;;3.97;1.60;;;;;;;-0.40;84.40;102503.72;4935924;29;20209;-79
2022/02/12 07:04:41;;;;;;;6.47;1.73;;;;;;;-0.33;83.65;102516.13;4935345;29;20230;-79
2022/02/12 07:07:07;;;;;;;5.57;1.30;;;;;;;-0.34;83.24;102521.16;4935624;29;20241;-79
2022/02/12 07:09:33;;;;;;;5.00;1.67;;;;;;;-0.37;83.65;102533.81;4935357;29;20213;-79
2022/02/12 07:12:00;;;;;;;3.37;1.50;;;;;;;-0.41;83.49;102527.63;4935410;29;20256;-79
2022/02/12 07:14:27;;;;;;;3.70;1.37;;;;;;;-0.41;83.94;102527.63;4935349;29;20292;-79
2022/02/12 07:16:54;;;;;;;3.13;1.43;;;;;;;-0.36;83.44;102527.88;4935927;29;20269;-80
2022/02/12 07:19:20;;;;;;;5.80;1.90;;;;;;;-0.36;83.29;102530.44;4935686;29;20205;-80
2022/02/12 07:21:46;;;;;;;6.33;1.73;;;;;;;-0.32;84.44;102515.31;4946460;29;20205;-79
2022/02/12 07:24:13;;;;;;;6.20;1.77;;;;;;;-0.33;84.26;102516.13;4945976;28;20265;-80
2022/02/12 07:26:40;;;;;;;2.80;1.77;;;;;;;-0.33;84.87;102510.09;4947196;29;20209;-80
2022/02/12 07:29:06;;;;;;;4.67;1.53;;;;;;;-0.39;84.79;102510.63;4948827;29;20677;-80
2022/02/12 07:31:34;;;;;;;10.60;2.67;;;;;;;-0.30;82.87;102533.38;4947107;29;20669;-79
2022/02/12 07:34:00;;;;;;;6.80;1.73;;;;;;;-0.21;81.99;102563.03;4948089;28;20276;-80
2022/02/12 07:36:26;;;;;;;4.83;1.97;;;;;;;-0.14;82.92;102554.03;4949865;28;20677;-79
2022/02/12 07:38:53;;;;;;;1.70;1.20;;;;;;;-0.06;82.20;102559.59;4948145;29;20205;-79
2022/02/12 07:41:20;;;;;;;4.00;1.57;;;;;;;-0.04;81.71;102578.53;4948201;28;20201;-80
2022/02/12 07:43:46;;;;;;;5.13;1.60;;;;;;;-0.01;81.95;102578.72;4948574;28;20558;-79
2022/02/12 07:46:13;;;;;;;3.93;1.43;;;;;;;0.06;82.59;102562.91;4950536;28;20194;-79
2022/02/12 07:48:42;;;;;;;3.27;1.30;;;;;;;0.12;81.43;102565.81;4949150;29;20206;-80
2022/02/12 07:51:09;;;;;;;6.87;1.83;;;;;;;0.18;82.04;102580.69;4947938;28;20549;-80
2022/02/12 07:53:35;;;;;;;3.27;1.63;;;;;;;0.17;81.71;102564.38;4949342;28;20197;-79
2022/02/12 07:56:02;;;;;;;5.30;1.73;;;;;;;0.22;80.19;102592.91;4949558;29;20225;-79
2022/02/12 07:58:29;;;;;;;4.37;2.33;;;;;;;0.32;79.57;102620.03;4948415;28;20206;-80
2022/02/12 08:00:55;;;;;;;5.30;1.70;;;;;;;0.36;77.48;102648.53;4949079;28;20279;-79
2022/02/12 08:03:21;;;;;;;6.53;1.27;;;;;;;0.37;78.72;102665.72;4949702;29;20668;-80
2022/02/12 08:05:49;;;;;;;3.17;1.67;;;;;;;0.46;79.22;102647.38;4948080;28;20237;-80
2022/02/12 08:08:15;;;;;;;7.60;1.60;;;;;;;0.51;77.35;102663.94;4950980;28;20206;-79
2022/02/12 08:13:26;;;;;;;2.47;1.53;;;;;;;0.59;76.99;102691.00;4952848;29;20208;-79
2022/02/12 08:15:52;;;;;;;7.67;1.90;;;;;;;0.59;76.45;102692.66;4953837;29;20579;-79
2022/02/12 08:18:18;;;;;;;9.07;1.40;;;;;;;0.68;76.91;102689.75;4953475;28;20268;-79
2022/02/12 08:20:45;;;;;;;8.53;1.83;;;;;;;0.73;76.20;102690.88;4955336;29;20205;-80
2022/02/12 08:23:14;;;;;;;8.60;1.50;;;;;;;0.79;77.10;102704.09;4954557;28;20308;-80
2022/02/12 08:25:40;;;;;;;4.60;1.50;;;;;;;0.85;76.02;102709.59;4956669;28;20228;-80
2022/02/12 08:28:07;;;;;;;4.27;1.57;;;;;;;0.90;76.49;102689.31;4955942;29;20197;-80
2022/02/12 08:30:33;;;;;;;3.70;1.47;;;;;;;0.94;77.33;102689.56;4954536;29;20201;-80
2022/02/12 08:32:59;;;;;;;5.53;1.83;;;;;;;0.96;74.37;102744.53;4954555;28;20193;-80
2022/02/12 08:35:26;;;;;;;2.87;1.10;;;;;;;1.05;74.91;102759.63;4956961;29;20220;-80
2022/02/12 08:37:52;;;;;;;4.73;1.30;;;;;;;1.04;75.17;102750.09;4955131;29;20571;-80
2022/02/12 08:40:22;;;;;;;5.87;1.30;;;;;;;1.08;75.43;102743.47;4964803;28;20255;-80
2022/02/12 08:42:49;;;;;;;2.77;1.23;;;;;;;1.15;73.76;102771.28;4964343;28;20267;-80
2022/02/12 08:45:16;;;;;;;2.93;1.13;;;;;;;1.21;72.80;102810.25;4964418;28;20225;-80
2022/02/12 08:47:44;;;;;;;3.43;1.37;;;;;;;1.27;71.72;102843.13;4966844;28;20213;-81
2022/02/12 08:50:10;;;;;;;3.90;1.23;;;;;;;1.33;72.65;102852.13;4964183;28;20208;-81
2022/02/12 08:52:38;;;;;;;1.63;1.20;;;;;;;1.32;72.80;102831.44;4965177;28;20748;-81
2022/02/12 08:55:06;;;;;;;3.43;1.23;;;;;;;1.34;72.55;102827.25;4956250;28;20707;-81
2022/02/12 08:57:33;;;;;;;7.87;1.97;;;;;;;1.39;71.59;102852.47;4945770;29;20209;-82
2022/02/12 09:00:00;;;;;;;3.53;1.30;;;;;;;1.42;72.45;102844.03;4945387;29;20220;-81
2022/02/12 09:02:26;;;;;;;2.60;1.60;;;;;;;1.44;72.30;102826.97;4945827;29;20210;-80
2022/02/12 09:04:52;;;;;;;3.83;1.43;;;;;;;1.51;72.23;102843.69;4946428;29;20225;-81
2022/02/12 09:07:19;;;;;;;3.43;1.40;;;;;;;1.53;70.23;102878.13;4948361;29;20213;-81
2022/02/12 09:09:45;;;;;;;3.53;1.47;;;;;;;1.58;69.61;102886.97;4946774;29;20215;-81
2022/02/12 09:12:12;;;;;;;4.90;1.60;;;;;;;1.69;70.59;102883.31;4941908;29;20209;-80
2022/02/12 09:14:40;;;;;;;3.57;1.30;;;;;;;1.70;71.90;102872.22;4940986;29;20308;-80
2022/02/12 09:17:07;;;;;;;5.40;1.73;;;;;;;1.84;73.02;102820.63;4941715;29;20236;-80
2022/02/12 09:19:35;;;;;;;3.77;2.30;;;;;;;1.99;74.61;102813.72;4941745;29;20214;-80
2022/02/12 09:22:02;;;;;;;4.10;1.47;;;;;;;2.16;74.22;102805.22;4941055;29;20205;-81
2022/02/12 09:24:28;;;;;;;3.63;1.23;;;;;;;2.31;74.33;102817.16;4949761;28;20273;-80
2022/02/12 09:26:54;;;;;;;4.80;1.40;;;;;;;2.43;72.05;102809.19;4941549;28;20209;-80
2022/02/12 09:29:21;;;;;;;4.00;1.53;;;;;;;2.46;70.85;102850.56;4951522;29;20912;-80
2022/02/12 09:31:49;;;;;;;5.83;1.60;;;;;;;2.35;68.46;102881.81;4960723;28;20212;-80
2022/02/12 09:34:15;;;;;;;2.60;1.47;;;;;;;2.44;69.91;102891.75;4960434;28;20264;-80
2022/02/12 09:36:42;;;;;;;5.03;1.43;;;;;;;2.35;68.92;102905.03;4959772;28;20230;-79
2022/02/12 09:39:09;;;;;;;3.83;1.73;;;;;;;2.37;68.07;102921.44;4960476;28;20201;-80
2022/02/12 09:41:35;;;;;;;2.97;1.30;;;;;;;2.49;68.71;102928.97;4960036;28;20248;-80
2022/02/12 09:44:01;;;;;;;7.97;1.57;;;;;;;2.49;68.50;102923.81;4960171;28;20293;-80
2022/02/12 09:46:53;;;;;;;4.93;1.50;;;;;;;2.53;68.57;102911.97;4960150;28;20236;-80
2022/02/12 09:49:20;;;;;;;5.17;1.70;;;;;;;2.53;68.18;102915.44;4960947;28;20212;-79
2022/02/12 09:51:51;;;;;;;4.20;1.20;;;;;;;2.54;68.96;102912.06;4960000;28;20209;-80
2022/02/12 09:54:17;;;;;;;5.97;1.60;;;;;;;2.65;69.00;102907.47;4961823;28;20235;-81
2022/02/12 09:56:44;;;;;;;10.10;1.67;;;;;;;2.73;69.35;102903.63;4955086;28;20285;-80
2022/02/12 09:59:10;;;;;;;5.17;1.40;;;;;;;2.79;69.58;102895.31;4950843;29;20209;-81
2022/02/12 10:01:39;;;;;;;4.60;1.90;;;;;;;2.85;70.15;102864.69;4942720;29;20238;-80
2022/02/12 10:04:14;;;;;;;5.30;1.83;;;;;;;2.78;68.52;102881.53;4949340;29;20234;-81
2022/02/12 10:06:44;;;;;;;3.03;1.60;;;;;;;2.88;68.70;102892.34;4959046;28;20238;-80
2022/02/12 10:09:11;;;;;;;5.40;1.73;;;;;;;2.95;70.73;102848.00;4958856;28;20194;-80
2022/02/12 10:11:42;;;;;;;6.67;1.80;;;;;;;3.07;71.46;102824.50;4958401;29;20217;-80
2022/02/12 10:14:10;;;;;;;4.70;1.67;;;;;;;3.13;70.90;102832.56;4959018;29;20262;-81
2022/02/12 10:16:49;;;;;;;3.40;1.43;;;;;;;3.17;70.76;102807.00;4956801;29;20241;-80
2022/02/12 10:19:16;;;;;;;3.43;1.40;;;;;;;3.07;68.17;102879.59;4958092;29;20193;-81
2022/02/12 10:22:04;;;;;;;6.53;1.63;;;;;;;3.16;68.50;102895.53;4958334;29;20190;-80
2022/02/12 10:24:48;;;;;;;4.63;1.60;;;;;;;3.14;67.75;102902.31;4956954;29;20227;-80
2022/02/12 10:27:15;;;;;;;6.50;1.97;;;;;;;3.21;67.56;102905.19;4961311;29;20199;-81
2022/02/12 10:29:42;;;;;;;5.33;1.60;;;;;;;3.13;68.33;102882.50;4963917;28;20186;-81
2022/02/12 10:32:09;;;;;;;4.63;1.40;;;;;;;3.17;69.77;102861.19;4958116;28;20206;-81
2022/02/12 10:34:39;;;;;;;3.10;1.60;;;;;;;3.17;69.95;102850.88;4956689;29;20229;-81
2022/02/12 10:37:07;;;;;;;4.27;1.37;;;;;;;3.20;68.78;102844.97;4954306;29;20213;-80
2022/02/12 10:39:48;;;;;;;6.87;1.77;;;;;;;3.30;69.71;102842.03;4955145;29;20346;-80
2022/02/12 10:42:16;;;;;;;5.80;1.73;;;;;;;3.36;68.95;102832.00;4954966;29;20802;-79
2022/02/12 10:44:42;;;;;;;4.53;1.53;;;;;;;3.38;69.37;102832.97;4950742;29;20617;-80
2022/02/12 10:47:11;;;;;;;4.13;1.53;;;;;;;3.29;68.69;102875.50;4941828;29;20665;-80
2022/02/12 10:49:38;;;;;;;5.13;2.87;;;;;;;3.33;67.55;102880.00;4941229;29;20436;-80
2022/02/12 10:52:04;;;;;;;3.37;1.30;;;;;;;3.28;66.84;102877.22;4942211;29;20222;-79
2022/02/12 10:54:41;;;;;;;2.60;1.60;;;;;;;3.45;67.75;102883.22;4943160;29;20231;-79
2022/02/12 10:57:08;;;;;;;6.43;1.83;;;;;;;3.40;67.05;102887.25;4948121;29;20717;-78
2022/02/12 10:59:36;;;;;;;2.63;1.40;;;;;;;3.36;67.09;102882.75;4952871;28;20207;-80
2022/02/12 11:02:06;;;;;;;3.77;1.30;;;;;;;3.36;67.47;102899.13;4947824;29;20643;-79
2022/02/12 11:04:35;;;;;;;8.17;2.60;;;;;;;3.52;66.08;102879.25;4946738;29;20235;-78
2022/02/12 11:07:03;;;;;;;4.37;1.70;;;;;;;3.64;66.13;102885.00;4948712;29;20258;-79
2022/02/12 11:09:31;;;;;;;3.37;1.30;;;;;;;3.61;65.67;102914.94;4948824;29;20262;-79
2022/02/12 11:12:04;;;;;;;5.97;1.93;;;;;;;3.54;66.03;102909.47;4948232;29;20235;-78
2022/02/12 11:14:32;;;;;;;3.53;1.83;;;;;;;3.72;66.78;102868.19;4956443;29;20293;-79
2022/02/12 11:17:01;;;;;;;4.90;1.50;;;;;;;3.75;65.70;102901.91;4951248;28;20264;-80
2022/02/12 11:19:28;;;;;;;8.27;1.97;;;;;;;3.90;66.39;102890.56;4944602;29;20215;-79
2022/02/12 11:21:56;;;;;;;4.77;1.53;;;;;;;4.03;65.95;102882.56;4946390;29;20211;-78
2022/02/12 11:24:34;;;;;;;4.80;2.00;;;;;;;3.95;64.40;102933.88;4946756;29;20242;-79
2022/02/12 11:27:15;;;;;;;5.23;2.10;;;;;;;3.99;65.08;102911.69;4948348;29;20215;-79
2022/02/12 11:29:44;;;;;;;6.63;1.53;;;;;;;4.07;64.98;102923.25;4951897;28;20266;-79
2022/02/12 11:32:12;;;;;;;4.23;1.53;;;;;;;4.05;64.08;102935.22;4946924;29;20266;-79
2022/02/12 11:34:43;;;;;;;5.30;1.97;;;;;;;4.08;63.33;102957.75;4946683;29;20236;-79
2022/02/12 11:37:14;;;;;;;4.00;1.33;;;;;;;4.05;62.65;102983.44;4947194;29;20281;-79